| time (UTC) | temp C | wind direction | speed KPH | gust KPH | rain 1hr cm | rain 24hr cm | rain mn cm | humidity % | barometer mb |
| 20260901104013 | 21 | 326 | 9.7 | 24.1 | 0.00 | 0.00 | 0.00 | 72 | 1020.1 |
| 20260901103514 | 21 | 321 | 12.9 | 24.1 | 0.00 | 0.00 | 0.00 | 73 | 1020.1 |
| 20260901103029 | 21 | 305 | 14.5 | 24.1 | 0.00 | 0.00 | 0.00 | 74 | 1020.1 |
| 20260901102528 | 21 | 340 | 6.4 | 24.1 | 0.00 | 0.00 | 0.00 | 75 | 1020.1 |
| 20260901102038 | 21 | 190 | 11.3 | 32.2 | 0.00 | 0.00 | 0.00 | 75 | 1020.1 |
| 20260901101525 | 21 | 190 | 14.5 | 32.2 | 0.00 | 0.00 | 0.00 | 74 | 1020.0 |
| 20260901101031 | 21 | 12 | 11.3 | 33.8 | 0.00 | 0.00 | 0.00 | 74 | 1020.1 |
| 20260901100538 | 20 | 349 | 17.7 | 33.8 | 0.00 | 0.00 | 0.00 | 74 | 1020.1 |
| 20260901100018 | 20 | 190 | 16.1 | 25.7 | 0.00 | 0.00 | 0.00 | 75 | 1020.1 |
| 20260901095522 | 20 | 190 | 9.7 | 20.9 | 0.00 | 0.00 | 0.00 | 75 | 1020.1 |
| 20260901095030 | 20 | 190 | 8.0 | 22.5 | 0.00 | 0.00 | 0.00 | 76 | 1020.1 |
| 20260901094518 | 20 | 190 | 9.7 | 27.4 | 0.00 | 0.00 | 0.00 | 76 | 1020.1 |
| 20260901094026 | 20 | 12 | 11.3 | 27.4 | 0.00 | 0.00 | 0.00 | 76 | 1020.0 |
| 20260901093534 | 20 | 311 | 12.9 | 27.4 | 0.00 | 0.00 | 0.00 | 76 | 1020.1 |
| 20260901092522 | 20 | 320 | 16.1 | 27.4 | 0.00 | 0.00 | 0.00 | 76 | 1020.0 |
| 20260901092029 | 20 | 6 | 14.5 | 29.0 | 0.00 | 0.00 | 0.00 | 77 | 1020.1 |
| 20260901091616 | 20 | 190 | 16.1 | 29.0 | 0.00 | 0.00 | 0.00 | 77 | 1020.0 |
| 20260901091038 | 20 | 296 | 9.7 | 17.7 | 0.00 | 0.00 | 0.00 | 77 | 1019.9 |
| 20260901090526 | 20 | 351 | 4.8 | 30.6 | 0.00 | 0.00 | 0.00 | 78 | 1019.9 |
| 20260901090034 | 20 | 8 | 11.3 | 30.6 | 0.00 | 0.00 | 0.00 | 78 | 1019.9 |
| 20260901085022 | 20 | 190 | 9.7 | 19.3 | 0.00 | 0.00 | 0.00 | 78 | 1019.9 |
| 20260901084013 | 20 | 343 | 6.4 | 20.9 | 0.00 | 0.00 | 0.00 | 78 | 1019.9 |
| 20260901083521 | 20 | 347 | 9.7 | 24.1 | 0.00 | 0.00 | 0.00 | 78 | 1019.8 |
| 20260901083025 | 20 | 349 | 9.7 | 30.6 | 0.00 | 0.00 | 0.00 | 78 | 1019.8 |
| 20260901082012 | 20 | 334 | 14.5 | 33.8 | 0.00 | 0.00 | 0.00 | 77 | 1019.8 |
| 20260901081513 | 20 | 301 | 17.7 | 32.2 | 0.00 | 0.00 | 0.00 | 77 | 1019.8 |
| 20260901081020 | 20 | 190 | 11.3 | 27.4 | 0.00 | 0.00 | 0.00 | 77 | 1019.8 |
| 20260901080528 | 20 | 32 | 8.0 | 33.8 | 0.00 | 0.00 | 0.00 | 78 | 1019.8 |
| 20260901075517 | 19 | 190 | 16.1 | 30.6 | 0.00 | 0.00 | 0.00 | 79 | 1019.6 |
| 20260901075018 | 19 | 190 | 4.8 | 19.3 | 0.00 | 0.00 | 0.00 | 80 | 1019.7 |
| 20260901074531 | 19 | 190 | 4.8 | 24.1 | 0.00 | 0.00 | 0.00 | 80 | 1019.7 |
| 20260901073512 | 18 | 190 | 14.5 | 22.5 | 0.00 | 0.00 | 0.00 | 80 | 1019.6 |
| 20260901073020 | 18 | 190 | 8.0 | 24.1 | 0.00 | 0.00 | 0.00 | 80 | 1019.6 |
| 20260901072520 | 18 | 344 | 12.9 | 24.1 | 0.00 | 0.00 | 0.00 | 80 | 1019.6 |
| 20260901072023 | 18 | 190 | 4.8 | 20.9 | 0.00 | 0.00 | 0.00 | 81 | 1019.6 |
| 20260901071551 | 18 | 190 | 8.0 | 20.9 | 0.00 | 0.00 | 0.00 | 81 | 1019.5 |
| 20260901071036 | 18 | 190 | 11.3 | 19.3 | 0.00 | 0.00 | 0.00 | 81 | 1019.5 |
| 20260901070550 | 18 | 190 | 8.0 | 20.9 | 0.00 | 0.00 | 0.00 | 81 | 1019.6 |
| 20260901070017 | 18 | 353 | 9.7 | 20.9 | 0.00 | 0.00 | 0.00 | 81 | 1019.6 |
| 20260901065518 | 18 | 4 | 8.0 | 22.5 | 0.00 | 0.00 | 0.00 | 81 | 1019.5 |
| 20260901065027 | 18 | 8 | 9.7 | 22.5 | 0.00 | 0.00 | 0.00 | 81 | 1019.5 |
| 20260901064514 | 18 | 311 | 11.3 | 22.5 | 0.00 | 0.00 | 0.00 | 81 | 1019.4 |
| 20260901064023 | 18 | 29 | 4.8 | 22.5 | 0.00 | 0.00 | 0.00 | 81 | 1019.3 |
| 20260901063524 | 18 | 62 | 526.3 | 526.3 | 0.00 | 0.00 | 0.00 | 81 | 1019.2 |
| 20260901063029 | 18 | 15 | 8.0 | 22.5 | 0.00 | 0.00 | 0.00 | 82 | 1019.3 |
| 20260901062529 | 18 | 26 | 11.3 | 22.5 | 0.00 | 0.00 | 0.00 | 82 | 1019.4 |
| 20260901062029 | 18 | 351 | 9.7 | 25.7 | 0.00 | 0.00 | 0.00 | 82 | 1019.3 |
| 20260901061517 | 18 | 347 | 6.4 | 25.7 | 0.00 | 0.00 | 0.00 | 82 | 1019.3 |
| 20260901061024 | 18 | 16 | 6.4 | 24.1 | 0.00 | 0.00 | 0.00 | 82 | 1019.2 |
| 20260901060535 | 18 | 28 | 9.7 | 24.1 | 0.00 | 0.00 | 0.00 | 82 | 1019.1 |
| 20260901060014 | 18 | 16 | 6.4 | 22.5 | 0.00 | 0.00 | 0.00 | 82 | 1019.0 |
| 20260901055522 | 18 | 1 | 4.8 | 24.1 | 0.00 | 0.00 | 0.00 | 82 | 1019.1 |
| 20260901055029 | 18 | 15 | 6.4 | 24.1 | 0.00 | 0.00 | 0.00 | 82 | 1019.0 |
| 20260901054518 | 18 | 345 | 11.3 | 24.1 | 0.00 | 0.00 | 0.00 | 82 | 1019.0 |
| 20260901054019 | 18 | 347 | 8.0 | 24.1 | 0.00 | 0.00 | 0.00 | 82 | 1019.0 |
| 20260901053513 | 18 | 324 | 12.9 | 24.1 | 0.00 | 0.00 | 0.00 | 82 | 1019.0 |
| 20260901052514 | 18 | 291 | 9.7 | 17.7 | 0.00 | 0.00 | 0.00 | 82 | 1019.0 |
| 20260901052022 | 18 | 35 | 9.7 | 17.7 | 0.00 | 0.00 | 0.00 | 82 | 1019.0 |
| 20260901051530 | 18 | 321 | 8.0 | 22.5 | 0.00 | 0.00 | 0.00 | 82 | 1019.0 |
| 20260901051057 | 18 | 49 | 9.7 | 22.5 | 0.00 | 0.00 | 0.00 | 82 | 1019.0 |
| 20260901050517 | 18 | 259 | 6.4 | 20.9 | 0.00 | 0.00 | 0.00 | 82 | 1019.0 |
| 20260901050025 | 18 | 3 | 8.0 | 22.5 | 0.00 | 0.00 | 0.00 | 82 | 1019.0 |
| 20260901045522 | 18 | 339 | 8.0 | 22.5 | 0.00 | 0.00 | 0.00 | 82 | 1018.9 |
| 20260901045029 | 18 | 317 | 12.9 | 22.5 | 0.00 | 0.00 | 0.00 | 82 | 1018.9 |
| 20260901044538 | 18 | 74 | 6.4 | 17.7 | 0.00 | 0.00 | 0.00 | 82 | 1018.9 |
| 20260901043532 | 18 | 326 | 9.7 | 22.5 | 0.00 | 0.00 | 0.00 | 82 | 1018.9 |
| 20260901043013 | 18 | 23 | 8.0 | 22.5 | 0.00 | 0.00 | 0.00 | 82 | 1018.9 |
| 20260901042514 | 18 | 46 | 4.8 | 12.9 | 0.00 | 0.00 | 0.00 | 82 | 1018.9 |
| 20260901042022 | 18 | 16 | 8.0 | 22.5 | 0.00 | 0.00 | 0.00 | 82 | 1018.9 |
| 20260901041530 | 18 | 351 | 6.4 | 22.5 | 0.00 | 0.00 | 0.00 | 82 | 1018.9 |
| 20260901040534 | 18 | 278 | 9.7 | 20.9 | 0.00 | 0.00 | 0.00 | 82 | 1019.1 |
| 20260901040035 | 18 | 349 | 4.8 | 14.5 | 0.00 | 0.00 | 0.00 | 82 | 1019.0 |
| 20260901035514 | 18 | 327 | 1.6 | 17.7 | 0.00 | 0.00 | 0.00 | 82 | 1019.1 |
| 20260901035021 | 18 | 359 | 4.8 | 16.1 | 0.00 | 0.00 | 0.00 | 82 | 1019.1 |
| 20260901034022 | 18 | 321 | 6.4 | 16.1 | 0.00 | 0.00 | 0.00 | 82 | 1019.2 |
| 20260901033523 | 18 | 40 | 8.0 | 14.5 | 0.00 | 0.00 | 0.00 | 82 | 1019.2 |
| 20260901033011 | 17 | 312 | 8.0 | 14.5 | 0.00 | 0.00 | 0.00 | 82 | 1019.2 |
| 20260901032511 | 17 | 355 | 4.8 | 16.1 | 0.00 | 0.00 | 0.00 | 82 | 1019.2 |
| 20260901032019 | 17 | 277 | 11.3 | 16.1 | 0.00 | 0.00 | 0.00 | 82 | 1019.2 |
| 20260901031526 | 18 | 303 | 4.8 | 17.7 | 0.00 | 0.00 | 0.00 | 82 | 1019.2 |
| 20260901031032 | 18 | 22 | 4.8 | 14.5 | 0.00 | 0.00 | 0.00 | 82 | 1019.2 |
| 20260901030036 | 18 | 321 | 9.7 | 17.7 | 0.00 | 0.00 | 0.00 | 82 | 1019.3 |
| 20260901025532 | 18 | 359 | 6.4 | 14.5 | 0.00 | 0.00 | 0.00 | 82 | 1019.3 |
| 20260901025013 | 18 | 331 | 9.7 | 16.1 | 0.00 | 0.00 | 0.00 | 82 | 1019.4 |
| 20260901024521 | 18 | 347 | 8.0 | 16.1 | 0.00 | 0.00 | 0.00 | 82 | 1019.3 |
| 20260901024029 | 18 | 19 | 8.0 | 16.1 | 0.00 | 0.00 | 0.00 | 82 | 1019.4 |
| 20260901023530 | 18 | 325 | 3.2 | 12.9 | 0.00 | 0.00 | 0.00 | 82 | 1019.4 |
| 20260901023018 | 18 | 324 | 6.4 | 27.4 | 0.00 | 0.00 | 0.00 | 82 | 1019.5 |
| 20260901022519 | 18 | 343 | 6.4 | 27.4 | 0.00 | 0.00 | 0.00 | 82 | 1019.5 |
| 20260901022026 | 18 | 336 | 8.0 | 20.9 | 0.00 | 0.00 | 0.00 | 82 | 1019.5 |
| 20260901021529 | 18 | 209 | 8.0 | 20.9 | 0.00 | 0.00 | 0.00 | 82 | 1019.5 |
| 20260901021023 | 18 | 302 | 3.2 | 14.5 | 0.00 | 0.00 | 0.00 | 82 | 1019.5 |
| 20260901020531 | 18 | 28 | 8.0 | 17.7 | 0.00 | 0.00 | 0.00 | 82 | 1019.6 |
| 20260901020040 | 18 | 331 | 9.7 | 19.3 | 0.00 | 0.00 | 0.00 | 82 | 1019.6 |
| 20260901015521 | 18 | 345 | 9.7 | 19.3 | 0.00 | 0.00 | 0.00 | 81 | 1019.7 |
| 20260901015025 | 18 | 332 | 9.7 | 17.7 | 0.00 | 0.00 | 0.00 | 81 | 1019.8 |
| 20260901014533 | 18 | 332 | 9.7 | 20.9 | 0.00 | 0.00 | 0.00 | 81 | 1019.9 |
| 20260901014039 | 18 | 1 | 6.4 | 14.5 | 0.00 | 0.00 | 0.00 | 81 | 1020.0 |
| 20260901013544 | 18 | 151 | 4.8 | 14.5 | 0.00 | 0.00 | 0.00 | 81 | 1020.1 |
| 20260901013011 | 18 | 354 | 4.8 | 14.5 | 0.00 | 0.00 | 0.00 | 81 | 1020.1 |
| 20260901012532 | 18 | 20 | 4.8 | 16.1 | 0.00 | 0.00 | 0.00 | 81 | 1020.1 |
| 20260901012018 | 18 | 340 | 8.0 | 16.1 | 0.00 | 0.00 | 0.00 | 81 | 1020.1 |
| 20260901011526 | 18 | 87 | 8.0 | 12.9 | 0.00 | 0.00 | 0.00 | 81 | 1020.1 |
| 20260901011031 | 18 | 329 | 1.6 | 16.1 | 0.00 | 0.00 | 0.00 | 81 | 1020.2 |
| 20260901010526 | 18 | 348 | 4.8 | 14.5 | 0.00 | 0.00 | 0.00 | 81 | 1020.2 |
| 20260901010050 | 18 | 346 | 8.0 | 20.9 | 0.00 | 0.00 | 0.00 | 81 | 1020.2 |
| 20260901005536 | 18 | 325 | 8.0 | 20.9 | 0.00 | 0.00 | 0.00 | 81 | 1020.1 |
| 20260901004550 | 18 | 309 | 14.5 | 27.4 | 0.00 | 0.00 | 0.00 | 80 | 1020.3 |
| 20260901004036 | 18 | 24 | 8.0 | 22.5 | 0.00 | 0.00 | 0.00 | 80 | 1020.2 |
| 20260901003053 | 18 | 297 | 8.0 | 17.7 | 0.00 | 0.00 | 0.00 | 80 | 1020.2 |
| 20260901002513 | 18 | 290 | 8.0 | 19.3 | 0.00 | 0.00 | 0.00 | 80 | 1020.2 |
| 20260901002041 | 18 | 9 | 3.2 | 20.9 | 0.00 | 0.00 | 0.00 | 80 | 1020.2 |
| 20260901001521 | 18 | 136 | 9.7 | 20.9 | 0.00 | 0.00 | 0.00 | 80 | 1020.1 |
| 20260901001055 | 18 | 340 | 4.8 | 25.7 | 0.00 | 0.00 | 0.00 | 79 | 1020.2 |
| 20260901000515 | 18 | 5 | 6.4 | 25.7 | 0.00 | 0.00 | 0.00 | 79 | 1020.2 |
| 20260901000040 | 18 | 295 | 6.4 | 19.3 | 0.00 | 0.00 | 0.00 | 79 | 1020.4 |
| 20260831235521 | 18 | 3 | 9.7 | 16.1 | 0.00 | 0.00 | 0.00 | 79 | 1020.3 |
| 20260831235029 | 18 | 320 | 6.4 | 20.9 | 0.00 | 0.00 | 0.00 | 79 | 1020.3 |
| 20260831234517 | 18 | 18 | 9.7 | 20.9 | 0.00 | 0.00 | 0.00 | 79 | 1020.2 |
| 20260831234019 | 18 | 3 | 6.4 | 20.9 | 0.00 | 0.00 | 0.00 | 79 | 1020.3 |
| 20260831233526 | 18 | 359 | 14.5 | 20.9 | 0.00 | 0.00 | 0.00 | 79 | 1020.2 |
| 20260831233013 | 18 | 8 | 8.0 | 27.4 | 0.00 | 0.00 | 0.00 | 79 | 1020.1 |
| 20260831232514 | 18 | 52 | 11.3 | 27.4 | 0.00 | 0.00 | 0.00 | 78 | 1020.2 |
| 20260831232030 | 18 | 266 | 6.4 | 24.1 | 0.00 | 0.00 | 0.00 | 78 | 1020.1 |
| 20260831231538 | 18 | 65 | 9.7 | 24.1 | 0.00 | 0.00 | 0.00 | 78 | 1020.1 |
| 20260831231022 | 18 | 325 | 8.0 | 20.9 | 0.00 | 0.00 | 0.00 | 78 | 1020.2 |
| 20260831230519 | 18 | 33 | 9.7 | 22.5 | 0.00 | 0.00 | 0.00 | 78 | 1020.2 |
| 20260831230023 | 18 | 19 | 8.0 | 22.5 | 0.00 | 0.00 | 0.00 | 77 | 1020.2 |
| 20260831225055 | 18 | 16 | 11.3 | 25.7 | 0.00 | 0.00 | 0.00 | 77 | 1020.1 |
| 20260831224514 | 18 | 248 | 9.7 | 25.7 | 0.00 | 0.00 | 0.00 | 77 | 1020.1 |
| 20260831224044 | 18 | 12 | 9.7 | 24.1 | 0.00 | 0.00 | 0.00 | 77 | 1020.1 |
| 20260831223530 | 18 | 316 | 11.3 | 24.1 | 0.00 | 0.00 | 0.00 | 77 | 1020.1 |
| 20260831223011 | 18 | 357 | 8.0 | 27.4 | 0.00 | 0.00 | 0.00 | 77 | 1020.3 |
| 20260831222511 | 18 | 22 | 11.3 | 27.4 | 0.00 | 0.00 | 0.00 | 77 | 1020.5 |
| 20260831222019 | 18 | 26 | 6.4 | 20.9 | 0.00 | 0.00 | 0.00 | 77 | 1020.4 |
| 20260831221527 | 18 | 27 | 6.4 | 24.1 | 0.00 | 0.00 | 0.00 | 77 | 1020.5 |
| 20260831221034 | 18 | 174 | 8.0 | 24.1 | 0.00 | 0.00 | 0.00 | 77 | 1020.5 |
| 20260831220516 | 18 | 346 | 12.9 | 20.9 | 0.00 | 0.00 | 0.00 | 77 | 1020.5 |
| 20260831220024 | 19 | 18 | 6.4 | 25.7 | 0.00 | 0.00 | 0.00 | 76 | 1020.6 |
| 20260831215521 | 19 | 10 | 9.7 | 35.4 | 0.00 | 0.00 | 0.00 | 76 | 1020.5 |
| 20260831215050 | 19 | 324 | 19.3 | 35.4 | 0.00 | 0.00 | 0.00 | 77 | 1020.5 |
| 20260831214515 | 19 | 336 | 6.4 | 24.1 | 0.00 | 0.00 | 0.00 | 77 | 1020.5 |
| 20260831214024 | 19 | 27 | 12.9 | 30.6 | 0.00 | 0.00 | 0.00 | 77 | 1020.5 |
| 20260831213600 | 19 | 315 | 11.3 | 33.8 | 0.00 | 0.00 | 0.00 | 77 | 1020.5 |
| 20260831213014 | 19 | 308 | 12.9 | 35.4 | 0.00 | 0.00 | 0.00 | 77 | 1020.5 |
| 20260831212636 | 19 | 308 | 17.7 | 35.4 | 0.00 | 0.00 | 0.00 | 77 | 1020.6 |
| 20260831212026 | 19 | 23 | 8.0 | 24.1 | 0.00 | 0.00 | 0.00 | 77 | 1020.7 |
| 20260831211514 | 19 | 315 | 11.3 | 24.1 | 0.00 | 0.00 | 0.00 | 77 | 1020.7 |
| 20260831211015 | 19 | 359 | 9.7 | 33.8 | 0.00 | 0.00 | 0.00 | 77 | 1020.7 |
| 20260831210536 | 19 | 298 | 12.9 | 33.8 | 0.00 | 0.00 | 0.00 | 77 | 1020.6 |
| 20260831210016 | 19 | 334 | 11.3 | 29.0 | 0.00 | 0.00 | 0.00 | 77 | 1020.5 |
| 20260831205545 | 19 | 21 | 9.7 | 37.0 | 0.00 | 0.00 | 0.00 | 77 | 1020.5 |
| 20260831205053 | 19 | 22 | 14.5 | 37.0 | 0.00 | 0.00 | 0.00 | 77 | 1020.5 |
| 20260831204513 | 19 | 357 | 12.9 | 37.0 | 0.00 | 0.00 | 0.00 | 77 | 1020.4 |
| 20260831204022 | 19 | 304 | 16.1 | 37.0 | 0.00 | 0.00 | 0.00 | 77 | 1020.4 |
| 20260831203529 | 19 | 44 | 12.9 | 22.5 | 0.00 | 0.00 | 0.00 | 77 | 1020.4 |
| 20260831203057 | 19 | 8 | 6.4 | 24.1 | 0.00 | 0.00 | 0.00 | 76 | 1020.3 |
| 20260831202514 | 19 | 231 | 9.7 | 29.0 | 0.00 | 0.00 | 0.00 | 76 | 1020.3 |
| 20260831202027 | 19 | 95 | 6.4 | 30.6 | 0.00 | 0.00 | 0.00 | 76 | 1020.2 |
| 20260831201621 | 19 | 41 | 16.1 | 35.4 | 0.00 | 0.00 | 0.00 | 76 | 1020.1 |
| 20260831201016 | 19 | 50 | 9.7 | 32.2 | 0.00 | 0.00 | 0.00 | 75 | 1020.0 |
| 20260831200526 | 20 | 335 | 16.1 | 32.2 | 0.00 | 0.00 | 0.00 | 75 | 1019.9 |
| 20260831200012 | 20 | 53 | 12.9 | 27.4 | 0.00 | 0.00 | 0.00 | 74 | 1019.9 |
| 20260831195512 | 20 | 299 | 12.9 | 30.6 | 0.00 | 0.00 | 0.00 | 74 | 1019.8 |
| 20260831195020 | 20 | 329 | 9.7 | 29.0 | 0.00 | 0.00 | 0.00 | 74 | 1019.8 |
| 20260831194047 | 20 | 10 | 9.7 | 29.0 | 0.00 | 0.00 | 0.00 | 74 | 1019.8 |
| 20260831193521 | 20 | 13 | 11.3 | 29.0 | 0.00 | 0.00 | 0.00 | 73 | 1019.6 |
| 20260831193029 | 20 | 39 | 9.7 | 30.6 | 0.00 | 0.00 | 0.00 | 73 | 1019.6 |
| 20260831192516 | 20 | 276 | 11.3 | 32.2 | 0.00 | 0.00 | 0.00 | 73 | 1019.5 |
| 20260831192025 | 20 | 11 | 11.3 | 32.2 | 0.00 | 0.00 | 0.00 | 73 | 1019.5 |
| 20260831191520 | 20 | 359 | 16.1 | 33.8 | 0.00 | 0.00 | 0.00 | 73 | 1019.4 |
| 20260831191045 | 20 | 190 | 12.9 | 33.8 | 0.00 | 0.00 | 0.00 | 73 | 1019.4 |
| 20260831190513 | 21 | 190 | 11.3 | 29.0 | 0.00 | 0.00 | 0.00 | 72 | 1019.4 |
| 20260831190041 | 21 | 190 | 11.3 | 30.6 | 0.00 | 0.00 | 0.00 | 71 | 1019.4 |
| 20260831185541 | 21 | 190 | 11.3 | 35.4 | 0.00 | 0.00 | 0.00 | 70 | 1019.3 |
| 20260831185027 | 21 | 190 | 16.1 | 38.6 | 0.00 | 0.00 | 0.00 | 69 | 1019.2 |
| 20260831184535 | 21 | 190 | 17.7 | 38.6 | 0.00 | 0.00 | 0.00 | 68 | 1019.2 |
| 20260831184023 | 21 | 190 | 16.1 | 33.8 | 0.00 | 0.00 | 0.00 | 68 | 1019.2 |
| 20260831183525 | 21 | 190 | 12.9 | 33.8 | 0.00 | 0.00 | 0.00 | 68 | 1019.1 |
| 20260831183013 | 22 | 190 | 9.7 | 29.0 | 0.00 | 0.00 | 0.00 | 66 | 1019.1 |
| 20260831182513 | 22 | 190 | 11.3 | 33.8 | 0.00 | 0.00 | 0.00 | 66 | 1019.0 |
| 20260831182024 | 22 | 190 | 17.7 | 35.4 | 0.00 | 0.00 | 0.00 | 65 | 1019.0 |
| 20260831181530 | 22 | 190 | 22.5 | 37.0 | 0.00 | 0.00 | 0.00 | 63 | 1018.9 |
| 20260831181037 | 22 | 190 | 20.9 | 37.0 | 0.00 | 0.00 | 0.00 | 62 | 1018.9 |
| 20260831180517 | 22 | 333 | 24.1 | 37.0 | 0.00 | 0.00 | 0.00 | 61 | 1018.9 |
| 20260831180025 | 22 | 13 | 22.5 | 35.4 | 0.00 | 0.00 | 0.00 | 60 | 1018.9 |
| 20260831175526 | 23 | 337 | 19.3 | 33.8 | 0.00 | 0.00 | 0.00 | 58 | 1018.9 |
| 20260831174523 | 23 | 348 | 9.7 | 30.6 | 0.00 | 0.00 | 0.00 | 56 | 1018.9 |
| 20260831174031 | 23 | 190 | 11.3 | 30.6 | 0.00 | 0.00 | 0.00 | 58 | 1018.9 |
| 20260831173512 | 23 | 190 | 12.9 | 27.4 | 0.00 | 0.00 | 0.00 | 58 | 1018.9 |
| 20260831173019 | 23 | 336 | 12.9 | 25.7 | 0.00 | 0.00 | 0.00 | 57 | 1019.0 |
| 20260831172520 | 23 | 337 | 11.3 | 30.6 | 0.00 | 0.00 | 0.00 | 57 | 1018.9 |
| 20260831171523 | 23 | 333 | 14.5 | 29.0 | 0.00 | 0.00 | 0.00 | 56 | 1019.0 |
| 20260831171025 | 23 | 353 | 17.7 | 33.8 | 0.00 | 0.00 | 0.00 | 56 | 1019.0 |
| 20260831170514 | 23 | 190 | 24.1 | 35.4 | 0.00 | 0.00 | 0.00 | 55 | 1019.1 |
| 20260831170041 | 23 | 190 | 20.9 | 32.2 | 0.00 | 0.00 | 0.00 | 55 | 1019.1 |
| 20260831165521 | 24 | 325 | 16.1 | 27.4 | 0.00 | 0.00 | 0.00 | 55 | 1019.0 |
| 20260831165030 | 24 | 310 | 11.3 | 27.4 | 0.00 | 0.00 | 0.00 | 55 | 1019.0 |
| 20260831164511 | 24 | 20 | 14.5 | 27.4 | 0.00 | 0.00 | 0.00 | 54 | 1019.1 |
| 20260831164018 | 24 | 336 | 11.3 | 0.0 | 0.00 | 0.00 | 0.00 | 53 | 1019.0 |
| 20260831163522 | 24 | 326 | 8.0 | 29.0 | 0.00 | 0.00 | 0.00 | 54 | 1019.1 |
| 20260831163023 | 24 | 3 | 19.3 | 37.0 | 0.00 | 0.00 | 0.00 | 54 | 1019.2 |
| 20260831162611 | 24 | 347 | 11.3 | 37.0 | 0.00 | 0.00 | 0.00 | 53 | 1019.0 |
| 20260831162050 | 24 | 190 | 19.3 | 32.2 | 0.00 | 0.00 | 0.00 | 53 | 1019.1 |
| 20260831161536 | 24 | 327 | 17.7 | 33.8 | 0.00 | 0.00 | 0.00 | 53 | 1019.1 |
| 20260831161023 | 24 | 190 | 24.1 | 33.8 | 0.00 | 0.00 | 0.00 | 54 | 1019.1 |
| 20260831160513 | 24 | 336 | 20.9 | 40.2 | 0.00 | 0.00 | 0.00 | 53 | 1019.1 |
| 20260831160014 | 25 | 190 | 25.7 | 40.2 | 0.00 | 0.00 | 0.00 | 52 | 1019.1 |
| 20260831155514 | 25 | 316 | 14.5 | 27.4 | 0.00 | 0.00 | 0.00 | 52 | 1019.2 |
| 20260831155050 | 25 | 28 | 16.1 | 29.0 | 0.00 | 0.00 | 0.00 | 52 | 1019.1 |
| 20260831154515 | 25 | 340 | 12.9 | 24.1 | 0.00 | 0.00 | 0.00 | 51 | 1019.1 |
| 20260831154022 | 25 | 30 | 12.9 | 29.0 | 0.00 | 0.00 | 0.00 | 52 | 1019.1 |
| 20260831153549 | 25 | 14 | 16.1 | 29.0 | 0.00 | 0.00 | 0.00 | 51 | 1019.1 |
| 20260831153035 | 25 | 305 | 11.3 | 29.0 | 0.00 | 0.00 | 0.00 | 52 | 1019.2 |
| 20260831152532 | 25 | 5 | 16.1 | 29.0 | 0.00 | 0.00 | 0.00 | 51 | 1019.1 |
| 20260831152033 | 25 | 37 | 8.0 | 19.3 | 0.00 | 0.00 | 0.00 | 50 | 1019.3 |
| 20260831151518 | 25 | 38 | 6.4 | 27.4 | 0.00 | 0.00 | 0.00 | 51 | 1019.3 |
| 20260831151025 | 25 | 89 | 11.3 | 32.2 | 0.00 | 0.00 | 0.00 | 51 | 1019.3 |
| 20260831150514 | 25 | 23 | 17.7 | 32.2 | 0.00 | 0.00 | 0.00 | 50 | 1019.3 |
| 20260831150022 | 25 | 348 | 17.7 | 32.2 | 0.00 | 0.00 | 0.00 | 50 | 1019.3 |
| 20260831145610 | 25 | 343 | 8.0 | 22.5 | 0.00 | 0.00 | 0.00 | 50 | 1019.3 |
| 20260831145026 | 25 | 27 | 9.7 | 27.4 | 0.00 | 0.00 | 0.00 | 50 | 1019.3 |
| 20260831144036 | 25 | 1 | 14.5 | 30.6 | 0.00 | 0.00 | 0.00 | 51 | 1019.4 |
| 20260831143519 | 25 | 343 | 19.3 | 29.0 | 0.00 | 0.00 | 0.00 | 51 | 1019.4 |
| 20260831143033 | 25 | 11 | 11.3 | 35.4 | 0.00 | 0.00 | 0.00 | 51 | 1019.5 |
| 20260831142519 | 25 | 190 | 22.5 | 41.8 | 0.00 | 0.00 | 0.00 | 50 | 1019.5 |
| 20260831142047 | 25 | 328 | 24.1 | 33.8 | 0.00 | 0.00 | 0.00 | 51 | 1019.5 |
| 20260831141515 | 25 | 346 | 17.7 | 29.0 | 0.00 | 0.00 | 0.00 | 51 | 1019.6 |
| 20260831141015 | 25 | 32 | 14.5 | 29.0 | 0.00 | 0.00 | 0.00 | 50 | 1019.7 |
| 20260831140524 | 25 | 349 | 17.7 | 33.8 | 0.00 | 0.00 | 0.00 | 50 | 1019.6 |
| 20260831140011 | 25 | 342 | 16.1 | 32.2 | 0.00 | 0.00 | 0.00 | 50 | 1019.6 |
| 20260831135046 | 25 | 338 | 14.5 | 35.4 | 0.00 | 0.00 | 0.00 | 50 | 1019.6 |
| 20260831134554 | 25 | 326 | 22.5 | 35.4 | 0.00 | 0.00 | 0.00 | 51 | 1019.7 |
| 20260831133522 | 25 | 8 | 19.3 | 37.0 | 0.00 | 0.00 | 0.00 | 49 | 1019.7 |
| 20260831133043 | 25 | 331 | 22.5 | 37.0 | 0.00 | 0.00 | 0.00 | 51 | 1019.8 |
| 20260831132511 | 25 | 289 | 12.9 | 32.2 | 0.00 | 0.00 | 0.00 | 52 | 1019.9 |
| 20260831132018 | 25 | 154 | 14.5 | 35.4 | 0.00 | 0.00 | 0.00 | 53 | 1019.8 |
| 20260831131015 | 25 | 354 | 14.5 | 35.4 | 0.00 | 0.00 | 0.00 | 54 | 1019.8 |
| 20260831130544 | 25 | 190 | 24.1 | 35.4 | 0.00 | 0.00 | 0.00 | 54 | 1019.9 |
| 20260831130030 | 25 | 336 | 19.3 | 30.6 | 0.00 | 0.00 | 0.00 | 54 | 1019.9 |
| 20260831125538 | 25 | 351 | 11.3 | 33.8 | 0.00 | 0.00 | 0.00 | 54 | 1019.9 |
| 20260831125023 | 25 | 33 | 12.9 | 33.8 | 0.00 | 0.00 | 0.00 | 54 | 1020.0 |
| 20260831124047 | 25 | 331 | 12.9 | 33.8 | 0.00 | 0.00 | 0.00 | 56 | 1020.2 |
| 20260831123535 | 25 | 327 | 11.3 | 29.0 | 0.00 | 0.00 | 0.00 | 57 | 1020.1 |
| 20260831123012 | 24 | 30 | 16.1 | 29.0 | 0.00 | 0.00 | 0.00 | 57 | 1020.2 |
| 20260831122534 | 25 | 299 | 14.5 | 29.0 | 0.00 | 0.00 | 0.00 | 55 | 1020.2 |
| 20260831122014 | 24 | 48 | 16.1 | 29.0 | 0.00 | 0.00 | 0.00 | 54 | 1020.2 |
| 20260831121522 | 24 | 13 | 11.3 | 27.4 | 0.00 | 0.00 | 0.00 | 56 | 1020.3 |
| 20260831121027 | 24 | 310 | 14.5 | 33.8 | 0.00 | 0.00 | 0.00 | 54 | 1020.3 |
| 20260831120035 | 24 | 354 | 9.7 | 33.8 | 0.00 | 0.00 | 0.00 | 57 | 1020.3 |
| 20260831115522 | 24 | 348 | 19.3 | 33.8 | 0.00 | 0.00 | 0.00 | 57 | 1020.4 |
| 20260831115015 | 23 | 294 | 14.5 | 30.6 | 0.00 | 0.00 | 0.00 | 58 | 1020.3 |
| 20260831114032 | 24 | 190 | 14.5 | 27.4 | 0.00 | 0.00 | 0.00 | 57 | 1020.4 |
| 20260831113514 | 23 | 190 | 11.3 | 32.2 | 0.00 | 0.00 | 0.00 | 59 | 1020.5 |
| 20260831113042 | 23 | 330 | 16.1 | 32.2 | 0.00 | 0.00 | 0.00 | 59 | 1020.5 |
| 20260831112524 | 23 | 190 | 9.7 | 20.9 | 0.00 | 0.00 | 0.00 | 61 | 1020.5 |
| 20260831112019 | 23 | 190 | 11.3 | 27.4 | 0.00 | 0.00 | 0.00 | 61 | 1020.6 |
| 20260831111546 | 23 | 356 | 20.9 | 27.4 | 0.00 | 0.00 | 0.00 | 61 | 1020.6 |
| 20260831111032 | 23 | 345 | 4.8 | 20.9 | 0.00 | 0.00 | 0.00 | 62 | 1020.7 |
| 20260831110511 | 23 | 1 | 6.4 | 16.1 | 0.00 | 0.00 | 0.00 | 60 | 1020.7 |
| 20260831110020 | 23 | 25 | 8.0 | 16.1 | 0.00 | 0.00 | 0.00 | 61 | 1020.7 |
| 20260831105523 | 23 | 1 | 8.0 | 19.3 | 0.00 | 0.00 | 0.00 | 64 | 1020.8 |
| 20260831105011 | 23 | 8 | 8.0 | 19.3 | 0.00 | 0.00 | 0.00 | 63 | 1020.8 |
| 20260831104512 | 23 | 335 | 4.8 | 16.1 | 0.00 | 0.00 | 0.00 | 62 | 1020.8 |
| 20260831104107 | 23 | 356 | 8.0 | 19.3 | 0.00 | 0.00 | 0.00 | 62 | 1020.8 |